createdAt,value
2018-05-23T00:01:38.271Z,15.20
2018-05-23T00:04:06.835Z,15.30
2018-05-23T00:12:11.957Z,15.10
2018-05-23T00:14:40.791Z,15.00
2018-05-23T00:17:09.630Z,14.90
2018-05-23T00:19:38.146Z,14.80
2018-05-23T00:22:07.216Z,14.90
2018-05-23T00:24:35.702Z,15.00
2018-05-23T00:27:04.233Z,15.10
2018-05-23T00:29:32.719Z,15.10
2018-05-23T00:32:01.214Z,15.10
2018-05-23T00:34:29.786Z,15.20
2018-05-23T00:36:58.358Z,15.20
2018-05-23T00:39:26.864Z,15.20
2018-05-23T00:41:55.392Z,15.10
2018-05-23T00:44:23.908Z,15.10
2018-05-23T00:46:52.406Z,15.10
2018-05-23T00:49:20.942Z,15.00
2018-05-23T00:51:49.448Z,15.10
2018-05-23T00:54:19.049Z,15.10
2018-05-23T00:56:48.687Z,15.10
2018-05-23T00:59:17.191Z,15.00
2018-05-23T01:01:45.701Z,14.90
2018-05-23T01:04:14.246Z,14.90
2018-05-23T01:06:42.780Z,14.90
2018-05-23T01:09:12.090Z,14.90
2018-05-23T01:11:41.932Z,14.90
2018-05-23T01:14:10.486Z,14.90
2018-05-23T01:16:39.666Z,14.90
2018-05-23T01:19:08.313Z,14.90
2018-05-23T01:21:36.848Z,14.80
2018-05-23T01:24:05.375Z,14.80
2018-05-23T01:26:34.482Z,14.80
2018-05-23T01:29:03.047Z,14.80
2018-05-23T01:31:50.052Z,14.80
2018-05-23T01:34:19.471Z,14.90
2018-05-23T01:36:48.033Z,14.90
2018-05-23T01:39:16.832Z,14.80
2018-05-23T01:41:55.534Z,14.80
2018-05-23T01:44:24.032Z,14.80
2018-05-23T01:47:03.051Z,14.80
2018-05-23T01:49:40.554Z,14.80
2018-05-23T01:52:09.262Z,14.90
2018-05-23T01:54:37.784Z,14.80
2018-05-23T01:57:06.362Z,14.80
2018-05-23T02:02:37.510Z,14.80
2018-05-23T02:05:06.046Z,14.60
2018-05-23T02:07:34.259Z,14.60
2018-05-23T02:10:02.767Z,14.60
2018-05-23T02:12:31.505Z,14.70
2018-05-23T02:15:00.242Z,14.80
2018-05-23T02:17:29.989Z,14.90
2018-05-23T02:19:58.650Z,14.80
2018-05-23T02:22:27.207Z,14.80
2018-05-23T02:24:55.732Z,14.90
2018-05-23T02:27:24.494Z,14.80
2018-05-23T02:29:53.075Z,14.90
2018-05-23T02:32:21.590Z,14.80
2018-05-23T02:34:50.142Z,14.80
2018-05-23T02:37:19.137Z,14.70
2018-05-23T02:39:47.699Z,14.70
2018-05-23T02:42:16.233Z,14.70
2018-05-23T02:44:45.251Z,14.70
2018-05-23T02:47:14.256Z,14.70
2018-05-23T02:49:42.848Z,14.60
2018-05-23T02:52:12.721Z,14.40
2018-05-23T02:54:41.754Z,14.30
2018-05-23T02:57:22.553Z,14.30
2018-05-23T03:00:19.311Z,14.40
2018-05-23T03:05:44.683Z,14.50
2018-05-23T03:08:13.267Z,14.40
2018-05-23T03:10:41.734Z,14.40
2018-05-23T03:13:11.114Z,14.40
2018-05-23T03:15:39.353Z,14.40
2018-05-23T03:18:09.088Z,14.50
2018-05-23T03:20:39.920Z,14.50
2018-05-23T03:23:09.808Z,14.50
2018-05-23T03:25:38.872Z,14.60
2018-05-23T08:04:36.353Z,16.30
2018-05-23T08:07:04.187Z,16.40
2018-05-23T08:09:32.781Z,16.40
2018-05-23T08:12:01.348Z,16.50
2018-05-23T08:17:06.363Z,16.50
2018-05-23T08:19:35.905Z,16.50
2018-05-23T08:22:04.424Z,16.50
2018-05-23T08:24:34.321Z,16.70
2018-05-23T08:27:02.850Z,16.70
2018-05-23T08:29:31.352Z,16.90
2018-05-23T08:31:59.863Z,16.60
2018-05-23T08:34:28.363Z,16.40
2018-05-23T08:36:56.830Z,16.40
2018-05-23T08:39:25.294Z,16.30
2018-05-23T08:41:53.785Z,16.30
2018-05-23T08:44:22.323Z,16.20
2018-05-23T08:46:50.846Z,16.30
2018-05-23T08:49:19.302Z,16.40
2018-05-23T08:51:47.815Z,16.50
2018-05-23T08:54:16.303Z,16.50
2018-05-23T08:56:44.793Z,16.70
2018-05-23T08:59:13.240Z,16.70
2018-05-23T09:01:41.731Z,16.60
2018-05-23T09:04:10.196Z,16.60
2018-05-23T09:06:38.663Z,16.80
2018-05-23T09:09:08.138Z,16.90
2018-05-23T09:11:37.900Z,16.80
2018-05-23T09:14:06.529Z,16.80
2018-05-23T09:16:35.043Z,16.90
2018-05-23T09:19:03.576Z,17.00
2018-05-23T09:21:32.081Z,17.10
2018-05-23T09:24:00.623Z,17.20
2018-05-23T09:26:29.109Z,17.00
2018-05-23T09:28:57.569Z,16.70
2018-05-23T09:31:27.691Z,16.70
2018-05-23T09:33:56.432Z,16.90
2018-05-23T09:36:25.333Z,16.90
2018-05-23T09:38:54.304Z,17.20
2018-05-23T09:43:53.754Z,17.70
2018-05-23T10:26:33.642Z,21.50
2018-05-23T10:29:02.302Z,21.80
2018-05-23T10:31:31.077Z,21.90
2018-05-23T10:33:59.630Z,21.80
2018-05-23T10:36:28.107Z,22.10
2018-05-23T10:38:56.717Z,21.90
2018-05-23T10:41:25.406Z,21.30
2018-05-23T10:43:54.009Z,21.10
2018-05-23T10:46:23.171Z,21.30
2018-05-23T10:48:51.756Z,21.40
2018-05-23T10:51:20.279Z,21.30
2018-05-23T10:53:48.822Z,21.10
2018-05-23T10:56:16.995Z,21.20
2018-05-23T10:58:45.555Z,21.50
2018-05-23T11:01:14.325Z,21.90
2018-05-23T11:03:43.997Z,21.80
2018-05-23T11:06:12.719Z,21.10
2018-05-23T11:08:41.917Z,21.30
2018-05-23T11:11:10.598Z,21.00
2018-05-23T11:13:39.458Z,20.80
2018-05-23T11:16:07.995Z,21.20
2018-05-23T11:18:36.572Z,21.60
2018-05-23T11:21:05.078Z,22.40
2018-05-23T11:23:33.558Z,23.00
2018-05-23T11:26:02.664Z,22.60
2018-05-23T11:28:31.211Z,23.20
2018-05-23T11:30:59.709Z,23.20
2018-05-23T11:33:28.275Z,23.30
2018-05-23T11:35:56.919Z,23.10
2018-05-23T11:38:25.511Z,23.20
2018-05-23T11:40:54.010Z,23.40
2018-05-23T11:43:22.552Z,23.10
2018-05-23T11:45:51.176Z,22.80
2018-05-23T11:48:19.768Z,22.70
2018-05-23T11:50:48.460Z,23.20
2018-05-23T11:53:16.951Z,23.30
2018-05-23T11:55:45.252Z,23.30
2018-05-23T11:58:13.936Z,23.00
2018-05-23T12:00:42.723Z,22.50
2018-05-23T12:03:11.235Z,22.40
2018-05-23T12:05:39.760Z,22.50
2018-05-23T12:08:08.351Z,21.90
2018-05-23T12:10:36.973Z,21.60
2018-05-23T12:13:05.543Z,21.60
2018-05-23T12:15:34.043Z,21.50
2018-05-23T12:18:02.535Z,21.50
2018-05-23T12:20:30.958Z,21.60
2018-05-23T12:22:59.437Z,21.60
2018-05-23T12:25:28.200Z,21.70
2018-05-23T12:27:56.914Z,21.30
2018-05-23T12:30:25.570Z,21.10
2018-05-23T12:32:54.462Z,21.00
2018-05-23T12:35:27.667Z,21.00
2018-05-23T12:37:56.184Z,21.00
2018-05-23T12:40:24.619Z,20.70
2018-05-23T12:42:53.145Z,20.70
2018-05-23T12:45:21.636Z,20.70
2018-05-23T12:47:50.270Z,20.60
2018-05-23T12:50:18.793Z,20.60
2018-05-23T12:52:50.615Z,20.70
2018-05-23T12:55:19.071Z,20.70
2018-05-23T12:57:47.579Z,20.80
2018-05-23T13:00:16.064Z,20.80
2018-05-23T13:02:44.576Z,21.00
2018-05-23T13:05:13.172Z,21.40
2018-05-23T13:07:42.600Z,21.90
2018-05-23T13:10:11.033Z,21.90
2018-05-23T13:12:39.574Z,22.30
2018-05-23T13:15:08.187Z,22.50
2018-05-23T13:17:37.853Z,22.80
2018-05-23T13:20:05.955Z,22.70
2018-05-23T13:22:34.504Z,22.90
2018-05-23T13:25:02.880Z,23.20
2018-05-23T13:27:32.104Z,23.10
2018-05-23T13:30:00.555Z,23.10
2018-05-23T13:32:29.085Z,23.10
2018-05-23T13:34:57.564Z,22.80
2018-05-23T13:37:26.018Z,22.60
2018-05-23T13:39:54.529Z,22.70
2018-05-23T13:44:52.644Z,22.70
2018-05-23T13:47:21.051Z,23.00
2018-05-23T13:49:49.577Z,22.70
2018-05-23T13:52:18.089Z,22.70
2018-05-23T13:54:46.597Z,23.00
2018-05-23T13:57:16.194Z,22.80
2018-05-23T13:59:45.438Z,22.60
2018-05-23T14:02:20.194Z,22.60
2018-05-23T14:04:48.678Z,22.60
2018-05-23T14:07:17.122Z,22.70
2018-05-23T14:09:45.695Z,22.90
2018-05-23T14:12:15.936Z,22.80
2018-05-23T14:14:46.597Z,22.60
2018-05-23T14:17:18.489Z,22.40
2018-05-23T14:19:49.832Z,22.40
2018-05-23T14:22:18.288Z,22.50
2018-05-23T14:24:46.741Z,22.80
2018-05-23T14:27:15.519Z,22.70
2018-05-23T14:29:43.994Z,22.20
2018-05-23T14:32:14.707Z,22.00
2018-05-23T14:34:44.358Z,22.20
2018-05-23T14:37:12.841Z,22.20
2018-05-23T14:39:41.507Z,22.40
2018-05-23T14:42:09.998Z,22.60
2018-05-23T14:44:38.504Z,22.50
2018-05-23T14:47:06.880Z,22.30
2018-05-23T14:49:35.829Z,22.40
2018-05-23T14:52:07.355Z,22.40
2018-05-23T14:54:36.117Z,22.50
2018-05-23T14:57:03.985Z,22.50
2018-05-23T14:59:32.481Z,22.50
2018-05-23T15:02:00.971Z,22.50
2018-05-23T15:04:29.774Z,22.50
2018-05-23T15:07:00.269Z,22.10
2018-05-23T15:09:45.127Z,22.20
2018-05-23T15:12:13.716Z,22.30
2018-05-23T15:14:42.230Z,22.40
2018-05-23T15:17:10.934Z,22.30
2018-05-23T15:19:39.594Z,22.20
2018-05-23T15:22:08.228Z,22.20
2018-05-23T15:24:36.938Z,22.30
2018-05-23T15:27:04.847Z,22.40
2018-05-23T15:29:39.595Z,22.30
2018-05-23T15:32:14.626Z,22.40
2018-05-23T15:34:43.359Z,22.50
2018-05-23T15:37:11.923Z,22.50
2018-05-23T15:45:21.323Z,22.50
2018-05-23T15:47:49.875Z,22.50
2018-05-23T15:50:18.359Z,22.50
2018-05-23T15:52:51.228Z,22.60
2018-05-23T15:55:27.695Z,22.60
2018-05-23T15:57:58.890Z,22.60
2018-05-23T16:00:29.417Z,22.40
2018-05-23T16:05:32.917Z,22.20
2018-05-23T16:08:02.715Z,22.20
2018-05-23T16:10:34.505Z,22.10
2018-05-23T16:13:03.798Z,22.10
2018-05-23T16:15:34.565Z,21.90
2018-05-23T16:18:03.167Z,21.90
2018-05-23T16:20:31.754Z,22.00
2018-05-23T16:23:00.371Z,21.90
2018-05-23T16:25:30.025Z,21.90
2018-05-23T16:27:58.561Z,21.80
2018-05-23T16:30:27.051Z,21.80
2018-05-23T16:32:56.736Z,22.10
2018-05-23T16:35:25.272Z,22.00
2018-05-23T16:40:23.282Z,22.30
2018-05-23T16:42:51.797Z,22.30
2018-05-23T16:45:21.064Z,22.30
2018-05-23T16:47:49.577Z,22.10
2018-05-23T16:50:18.327Z,22.10
2018-05-23T16:52:46.829Z,21.90
2018-05-23T16:55:15.307Z,21.90
2018-05-23T16:57:43.811Z,21.90
2018-05-23T17:02:41.829Z,22.00
2018-05-23T17:05:19.753Z,21.90
2018-05-23T17:10:45.738Z,22.10
2018-05-23T17:13:22.580Z,22.20
2018-05-23T17:15:51.789Z,22.20
2018-05-23T17:18:20.226Z,22.20
2018-05-23T17:20:48.771Z,22.10
2018-05-23T17:23:17.334Z,22.00
2018-05-23T17:25:45.851Z,22.00
2018-05-23T17:28:16.091Z,22.00
2018-05-23T17:30:49.191Z,22.00
2018-05-23T17:33:18.170Z,22.10
2018-05-23T17:35:52.709Z,22.00
2018-05-23T17:38:21.235Z,22.00
2018-05-23T17:40:49.810Z,21.90
2018-05-23T17:43:18.431Z,21.80
2018-05-23T17:45:51.096Z,21.80
2018-05-23T17:48:19.733Z,21.80
2018-05-23T17:50:49.215Z,21.50
2018-05-23T17:53:17.734Z,21.50
2018-05-23T17:55:45.984Z,21.40
2018-05-23T17:58:14.495Z,21.50
2018-05-23T18:00:46.969Z,21.50
2018-05-23T18:03:15.470Z,21.30
2018-05-23T18:05:45.290Z,21.20
2018-05-23T18:08:14.456Z,21.20
2018-05-23T18:10:42.938Z,21.20
2018-05-23T18:13:11.435Z,21.10
2018-05-23T18:15:39.944Z,21.00
2018-05-23T18:18:08.452Z,20.90
2018-05-23T18:20:37.667Z,20.90
2018-05-23T18:23:06.334Z,20.90
2018-05-23T18:25:34.801Z,20.90
2018-05-23T18:28:03.654Z,20.90
2018-05-23T18:30:48.169Z,20.80
2018-05-23T18:33:16.678Z,20.70
2018-05-23T18:35:45.179Z,20.70
2018-05-23T18:38:13.686Z,20.70
2018-05-23T18:40:43.023Z,20.60
2018-05-23T18:43:11.559Z,20.60
2018-05-23T18:45:42.109Z,20.60
2018-05-23T18:54:13.326Z,20.50
2018-05-23T18:56:51.265Z,20.40
2018-05-23T18:59:21.815Z,20.40
2018-05-23T19:01:51.201Z,20.40
2018-05-23T19:04:19.863Z,20.40
2018-05-23T19:06:52.316Z,20.20
2018-05-23T19:09:20.842Z,20.10
2018-05-23T19:11:49.370Z,20.00
2018-05-23T19:14:17.892Z,19.90
2018-05-23T19:16:46.411Z,20.00
2018-05-23T19:19:14.959Z,19.90
2018-05-23T19:21:43.474Z,19.90
2018-05-23T19:24:11.967Z,19.90
2018-05-23T19:26:40.637Z,19.80
2018-05-23T19:29:09.607Z,19.70
2018-05-23T19:31:40.021Z,19.70
2018-05-23T19:34:09.748Z,19.60
2018-05-23T19:36:39.046Z,19.60
2018-05-23T19:39:07.725Z,19.50
2018-05-23T19:44:26.469Z,19.40
2018-05-23T19:46:57.131Z,19.40
2018-05-23T19:52:31.099Z,19.30
2018-05-23T19:54:59.606Z,19.20
2018-05-23T19:57:27.746Z,19.10
2018-05-23T19:59:56.809Z,19.10
2018-05-23T20:02:27.607Z,19.10
2018-05-23T20:04:56.378Z,19.00
2018-05-23T20:07:24.933Z,19.00
2018-05-23T20:09:53.430Z,19.00
2018-05-23T20:12:21.931Z,18.90
2018-05-23T20:16:12.340Z,18.90
2018-05-23T20:18:40.901Z,18.80
2018-05-23T20:21:09.479Z,18.70
2018-05-23T20:23:38.673Z,18.60
2018-05-23T20:26:07.571Z,18.50
2018-05-23T20:28:39.882Z,18.50
2018-05-23T20:31:09.169Z,18.50
2018-05-23T20:33:37.935Z,18.50
2018-05-23T20:36:07.930Z,18.50
2018-05-23T20:38:37.565Z,18.40
2018-05-23T20:41:06.157Z,18.40
2018-05-23T20:46:29.258Z,18.30
2018-05-23T20:48:57.710Z,18.30
2018-05-23T20:51:26.587Z,18.30
2018-05-23T20:54:07.081Z,18.30
2018-05-23T20:56:35.608Z,18.30
2018-05-23T20:59:04.162Z,18.30
2018-05-23T21:01:32.651Z,18.30
2018-05-23T21:04:01.224Z,18.10
2018-05-23T21:06:29.832Z,17.80
2018-05-23T21:08:58.404Z,17.90
2018-05-23T21:11:27.551Z,17.80
2018-05-23T21:13:56.024Z,17.80
2018-05-23T21:16:24.579Z,17.70
2018-05-23T21:18:53.115Z,17.70
2018-05-23T21:21:21.693Z,17.70
2018-05-23T21:23:50.208Z,17.70
2018-05-23T21:26:22.095Z,17.70
2018-05-23T21:28:50.618Z,17.70
2018-05-23T21:31:19.168Z,17.60
2018-05-23T21:33:47.702Z,17.50
2018-05-23T21:36:21.521Z,17.40
2018-05-23T21:38:50.024Z,17.30
2018-05-23T21:41:18.555Z,17.20
2018-05-23T21:43:47.278Z,17.10
2018-05-23T21:46:15.819Z,17.10
2018-05-23T21:48:44.313Z,17.20
2018-05-23T21:51:12.813Z,17.10
2018-05-23T21:53:41.469Z,17.20
2018-05-23T21:56:10.018Z,17.20
2018-05-23T21:58:38.535Z,17.20
2018-05-23T22:01:18.975Z,17.30
2018-05-23T22:03:47.553Z,17.40
2018-05-23T22:06:16.148Z,17.50
2018-05-23T22:08:44.773Z,17.50
2018-05-23T22:11:13.837Z,17.40
2018-05-23T22:13:43.357Z,17.40
2018-05-23T22:16:11.914Z,17.30
2018-05-23T22:18:40.413Z,17.10
2018-05-23T22:21:08.886Z,17.00
2018-05-23T22:23:37.396Z,17.00
2018-05-23T22:26:05.894Z,16.80
2018-05-23T22:28:34.403Z,16.90
2018-05-23T22:31:02.957Z,16.70
2018-05-23T22:33:31.454Z,16.60
2018-05-23T22:35:59.805Z,16.60
2018-05-23T22:38:29.599Z,16.60
2018-05-23T22:40:59.290Z,16.60
2018-05-23T22:43:27.784Z,16.60
2018-05-23T22:45:56.301Z,16.50
2018-05-23T22:48:24.863Z,16.40
2018-05-23T22:50:59.767Z,16.30
2018-05-23T22:53:28.329Z,16.20
2018-05-23T22:55:56.820Z,16.20
2018-05-23T22:58:25.488Z,16.10
2018-05-23T23:00:54.135Z,16.00
2018-05-23T23:03:22.707Z,16.00
2018-05-23T23:05:51.512Z,15.90
2018-05-23T23:08:20.215Z,15.90
2018-05-23T23:10:48.918Z,15.80
2018-05-23T23:13:17.569Z,15.80
2018-05-23T23:15:46.093Z,15.70
2018-05-23T23:18:14.675Z,15.70
2018-05-23T23:20:43.343Z,15.70
2018-05-23T23:23:12.073Z,15.60
2018-05-23T23:25:41.244Z,15.60
2018-05-23T23:28:10.559Z,15.60
2018-05-23T23:30:39.069Z,15.50
2018-05-23T23:33:07.650Z,15.50
2018-05-23T23:35:41.553Z,15.40
2018-05-23T23:38:10.250Z,15.40
2018-05-23T23:40:38.841Z,15.40
2018-05-23T23:43:07.419Z,15.40
2018-05-23T23:48:29.184Z,15.30
2018-05-23T23:50:57.719Z,15.30
2018-05-23T23:53:26.369Z,15.30
2018-05-23T23:55:54.879Z,15.30
2018-05-23T23:58:23.396Z,15.20
